sensor_id;sensor_type;location;lat;lon;timestamp;pressure;altitude;pressure_sealevel;temperature;humidity
61292;BME280;47165;42.664;23.368;2023-12-22T00:01:00;93565.59;;;3.63;61.04
61292;BME280;47165;42.664;23.368;2023-12-22T00:03:25;93547.63;;;3.61;60.94
61292;BME280;47165;42.664;23.368;2023-12-22T00:05:51;93549.94;;;3.66;61.15
61292;BME280;47165;42.664;23.368;2023-12-22T00:08:16;93545.88;;;3.62;61.29
61292;BME280;47165;42.664;23.368;2023-12-22T00:10:42;93545.59;;;3.67;61.29
61292;BME280;47165;42.664;23.368;2023-12-22T00:13:07;93541.44;;;3.64;61.46
61292;BME280;47165;42.664;23.368;2023-12-22T00:15:33;93544.03;;;3.64;61.17
61292;BME280;47165;42.664;23.368;2023-12-22T00:17:58;93540.69;;;3.62;61.38
61292;BME280;47165;42.664;23.368;2023-12-22T00:20:23;93527.66;;;3.65;61.09
61292;BME280;47165;42.664;23.368;2023-12-22T00:22:49;93528.63;;;3.62;61.04
61292;BME280;47165;42.664;23.368;2023-12-22T00:25:14;93523.97;;;3.69;61.36
61292;BME280;47165;42.664;23.368;2023-12-22T00:27:40;93497.09;;;3.57;61.12
61292;BME280;47165;42.664;23.368;2023-12-22T00:30:06;93517.75;;;3.73;61.06
61292;BME280;47165;42.664;23.368;2023-12-22T00:32:31;93511.84;;;3.71;61.30
61292;BME280;47165;42.664;23.368;2023-12-22T00:34:57;93517.00;;;3.71;60.91
61292;BME280;47165;42.664;23.368;2023-12-22T00:37:23;93500.56;;;3.72;61.12
61292;BME280;47165;42.664;23.368;2023-12-22T00:39:49;93491.00;;;3.74;60.92
61292;BME280;47165;42.664;23.368;2023-12-22T00:42:14;93499.50;;;3.76;61.20
61292;BME280;47165;42.664;23.368;2023-12-22T00:44:39;93481.50;;;3.75;61.39
61292;BME280;47165;42.664;23.368;2023-12-22T00:47:05;93483.91;;;3.78;60.65
61292;BME280;47165;42.664;23.368;2023-12-22T00:49:31;93467.84;;;3.73;61.08
61292;BME280;47165;42.664;23.368;2023-12-22T00:51:56;93476.09;;;3.79;60.98
61292;BME280;47165;42.664;23.368;2023-12-22T00:54:22;93474.34;;;3.80;61.23
61292;BME280;47165;42.664;23.368;2023-12-22T00:56:47;93474.09;;;3.85;61.34
61292;BME280;47165;42.664;23.368;2023-12-22T00:59:12;93480.81;;;3.87;61.17
61292;BME280;47165;42.664;23.368;2023-12-22T01:01:38;93449.00;;;3.87;61.21
61292;BME280;47165;42.664;23.368;2023-12-22T01:04:03;93462.34;;;3.79;61.46
61292;BME280;47165;42.664;23.368;2023-12-22T01:06:29;93458.25;;;3.91;60.91
61292;BME280;47165;42.664;23.368;2023-12-22T01:08:54;93466.41;;;3.99;60.77
61292;BME280;47165;42.664;23.368;2023-12-22T01:11:20;93468.91;;;4.00;61.20
61292;BME280;47165;42.664;23.368;2023-12-22T01:13:45;93474.16;;;3.99;61.51
61292;BME280;47165;42.664;23.368;2023-12-22T01:16:11;93480.81;;;4.03;61.02
61292;BME280;47165;42.664;23.368;2023-12-22T01:18:36;93472.31;;;4.01;60.96
61292;BME280;47165;42.664;23.368;2023-12-22T01:21:02;93475.81;;;4.00;61.02
61292;BME280;47165;42.664;23.368;2023-12-22T01:23:28;93466.66;;;3.94;60.97
61292;BME280;47165;42.664;23.368;2023-12-22T01:25:53;93463.56;;;4.03;60.71
61292;BME280;47165;42.664;23.368;2023-12-22T01:28:19;93470.31;;;4.06;61.05
61292;BME280;47165;42.664;23.368;2023-12-22T01:30:45;93475.13;;;4.12;61.05
61292;BME280;47165;42.664;23.368;2023-12-22T01:33:10;93459.28;;;4.18;60.61
61292;BME280;47165;42.664;23.368;2023-12-22T01:35:36;93465.28;;;4.19;60.25
61292;BME280;47165;42.664;23.368;2023-12-22T01:38:01;93462.50;;;4.22;60.79
61292;BME280;47165;42.664;23.368;2023-12-22T01:40:27;93447.13;;;4.20;60.46
61292;BME280;47165;42.664;23.368;2023-12-22T01:42:52;93435.75;;;4.23;59.85
61292;BME280;47165;42.664;23.368;2023-12-22T01:45:18;93432.91;;;4.28;59.77
61292;BME280;47165;42.664;23.368;2023-12-22T01:47:45;93425.91;;;4.30;60.23
61292;BME280;47165;42.664;23.368;2023-12-22T01:50:11;93445.09;;;4.26;60.09
61292;BME280;47165;42.664;23.368;2023-12-22T01:52:38;93414.16;;;4.24;60.30
61292;BME280;47165;42.664;23.368;2023-12-22T01:55:06;93424.25;;;4.29;60.71
61292;BME280;47165;42.664;23.368;2023-12-22T01:57:33;93429.63;;;4.40;60.12
61292;BME280;47165;42.664;23.368;2023-12-22T02:00:00;93413.56;;;4.35;60.04
61292;BME280;47165;42.664;23.368;2023-12-22T02:02:25;93422.31;;;4.32;60.53
61292;BME280;47165;42.664;23.368;2023-12-22T02:04:51;93418.00;;;4.33;60.87
61292;BME280;47165;42.664;23.368;2023-12-22T02:07:16;93410.25;;;4.33;60.57
61292;BME280;47165;42.664;23.368;2023-12-22T02:09:42;93422.59;;;4.42;60.54
61292;BME280;47165;42.664;23.368;2023-12-22T02:12:07;93413.66;;;4.48;59.99
61292;BME280;47165;42.664;23.368;2023-12-22T02:14:33;93425.66;;;4.49;59.80
61292;BME280;47165;42.664;23.368;2023-12-22T02:19:42;93421.50;;;4.46;60.68
61292;BME280;47165;42.664;23.368;2023-12-22T02:22:09;93413.00;;;4.44;60.47
61292;BME280;47165;42.664;23.368;2023-12-22T02:24:35;93413.75;;;4.46;60.56
61292;BME280;47165;42.664;23.368;2023-12-22T02:29:36;93426.88;;;4.43;61.06
61292;BME280;47165;42.664;23.368;2023-12-22T02:32:07;93419.13;;;4.43;60.84
61292;BME280;47165;42.664;23.368;2023-12-22T02:34:36;93415.03;;;4.39;61.08
61292;BME280;47165;42.664;23.368;2023-12-22T02:37:07;93417.44;;;4.42;61.17
61292;BME280;47165;42.664;23.368;2023-12-22T02:39:35;93418.00;;;4.47;61.00
61292;BME280;47165;42.664;23.368;2023-12-22T02:42:01;93404.34;;;4.45;60.98
61292;BME280;47165;42.664;23.368;2023-12-22T02:44:27;93413.09;;;4.42;61.30
61292;BME280;47165;42.664;23.368;2023-12-22T02:46:53;93406.28;;;4.41;61.81
61292;BME280;47165;42.664;23.368;2023-12-22T02:49:19;93400.09;;;4.44;61.57
61292;BME280;47165;42.664;23.368;2023-12-22T02:51:44;93409.03;;;4.38;61.65
61292;BME280;47165;42.664;23.368;2023-12-22T02:54:10;93399.72;;;4.36;61.74
61292;BME280;47165;42.664;23.368;2023-12-22T02:56:35;93368.03;;;4.32;61.79
61292;BME280;47165;42.664;23.368;2023-12-22T02:59:01;93383.03;;;4.41;61.81
61292;BME280;47165;42.664;23.368;2023-12-22T03:01:26;93380.34;;;4.43;61.69
61292;BME280;47165;42.664;23.368;2023-12-22T03:03:52;93390.84;;;4.40;61.79
61292;BME280;47165;42.664;23.368;2023-12-22T03:06:17;93383.03;;;4.41;62.08
61292;BME280;47165;42.664;23.368;2023-12-22T03:08:43;93385.69;;;4.40;62.17
61292;BME280;47165;42.664;23.368;2023-12-22T03:11:08;93386.44;;;4.42;62.05
61292;BME280;47165;42.664;23.368;2023-12-22T03:13:33;93368.78;;;4.49;61.99
61292;BME280;47165;42.664;23.368;2023-12-22T03:15:59;93364.66;;;4.46;61.88
61292;BME280;47165;42.664;23.368;2023-12-22T03:18:24;93379.41;;;4.44;61.55
61292;BME280;47165;42.664;23.368;2023-12-22T03:20:50;93381.84;;;4.47;61.67
61292;BME280;47165;42.664;23.368;2023-12-22T03:23:15;93375.81;;;4.47;61.25
61292;BME280;47165;42.664;23.368;2023-12-22T03:25:40;93386.25;;;4.45;61.49
61292;BME280;47165;42.664;23.368;2023-12-22T03:28:06;93383.47;;;4.48;61.71
61292;BME280;47165;42.664;23.368;2023-12-22T03:30:32;93384.78;;;4.41;62.31
61292;BME280;47165;42.664;23.368;2023-12-22T03:32:57;93384.78;;;4.41;61.95
61292;BME280;47165;42.664;23.368;2023-12-22T03:35:23;93388.28;;;4.40;62.05
61292;BME280;47165;42.664;23.368;2023-12-22T03:37:48;93385.03;;;4.36;62.12
61292;BME280;47165;42.664;23.368;2023-12-22T03:40:13;93390.38;;;4.33;62.20
61292;BME280;47165;42.664;23.368;2023-12-22T03:42:39;93389.56;;;4.33;62.03
61292;BME280;47165;42.664;23.368;2023-12-22T03:45:05;93379.13;;;4.34;62.09
61292;BME280;47165;42.664;23.368;2023-12-22T03:47:31;93374.69;;;4.36;62.17
61292;BME280;47165;42.664;23.368;2023-12-22T03:49:57;93358.56;;;4.33;62.14
61292;BME280;47165;42.664;23.368;2023-12-22T03:52:22;93375.34;;;4.40;62.42
61292;BME280;47165;42.664;23.368;2023-12-22T03:54:48;93384.78;;;4.41;62.37
61292;BME280;47165;42.664;23.368;2023-12-22T03:57:13;93378.88;;;4.39;62.72
61292;BME280;47165;42.664;23.368;2023-12-22T03:59:39;93380.34;;;4.43;62.59
61292;BME280;47165;42.664;23.368;2023-12-22T04:02:04;93380.53;;;4.40;62.59
61292;BME280;47165;42.664;23.368;2023-12-22T04:04:30;93376.84;;;4.44;62.94
61292;BME280;47165;42.664;23.368;2023-12-22T04:06:55;93372.41;;;4.46;62.80
61292;BME280;47165;42.664;23.368;2023-12-22T04:09:21;93367.16;;;4.48;62.87
61292;BME280;47165;42.664;23.368;2023-12-22T04:11:46;93369.81;;;4.46;62.55
61292;BME280;47165;42.664;23.368;2023-12-22T04:14:12;93377.50;;;4.48;62.20
61292;BME280;47165;42.664;23.368;2023-12-22T04:16:38;93379.03;;;4.50;62.00
61292;BME280;47165;42.664;23.368;2023-12-22T04:19:04;93378.13;;;4.51;61.66
61292;BME280;47165;42.664;23.368;2023-12-22T04:21:30;93380.38;;;4.57;62.11
61292;BME280;47165;42.664;23.368;2023-12-22T04:23:55;93380.06;;;4.62;62.38
61292;BME280;47165;42.664;23.368;2023-12-22T04:26:20;93377.56;;;4.60;62.99
61292;BME280;47165;42.664;23.368;2023-12-22T04:28:46;93371.38;;;4.63;62.73
61292;BME280;47165;42.664;23.368;2023-12-22T04:31:11;93362.88;;;4.61;62.59
61292;BME280;47165;42.664;23.368;2023-12-22T04:33:36;93345.38;;;4.52;63.01
61292;BME280;47165;42.664;23.368;2023-12-22T04:36:02;93367.88;;;4.64;63.19
61292;BME280;47165;42.664;23.368;2023-12-22T04:38:28;93369.53;;;4.65;63.65
61292;BME280;47165;42.664;23.368;2023-12-22T04:40:53;93360.06;;;4.66;64.14
61292;BME280;47165;42.664;23.368;2023-12-22T04:43:19;93357.19;;;4.70;63.75
61292;BME280;47165;42.664;23.368;2023-12-22T04:45:44;93354.22;;;4.76;63.63
61292;BME280;47165;42.664;23.368;2023-12-22T04:48:10;93357.63;;;4.77;63.61
61292;BME280;47165;42.664;23.368;2023-12-22T04:50:35;93350.44;;;4.82;63.51
61292;BME280;47165;42.664;23.368;2023-12-22T04:53:00;93353.84;;;4.82;63.52
61292;BME280;47165;42.664;23.368;2023-12-22T04:55:26;93356.44;;;4.82;63.61
61292;BME280;47165;42.664;23.368;2023-12-22T04:57:51;93358.19;;;4.82;63.24
61292;BME280;47165;42.664;23.368;2023-12-22T05:00:17;93350.88;;;4.89;63.79
61292;BME280;47165;42.664;23.368;2023-12-22T05:02:43;93358.56;;;4.90;63.81
61292;BME280;47165;42.664;23.368;2023-12-22T05:05:09;93343.22;;;4.87;64.28
61292;BME280;47165;42.664;23.368;2023-12-22T05:07:37;93338.59;;;4.92;64.25
61292;BME280;47165;42.664;23.368;2023-12-22T05:10:02;93334.34;;;4.91;64.52
61292;BME280;47165;42.664;23.368;2023-12-22T05:12:28;93343.94;;;4.89;64.64
61292;BME280;47165;42.664;23.368;2023-12-22T05:14:53;93338.03;;;4.87;64.25
61292;BME280;47165;42.664;23.368;2023-12-22T05:17:19;93339.81;;;4.87;63.84
61292;BME280;47165;42.664;23.368;2023-12-22T05:19:45;93348.94;;;4.92;63.61
61292;BME280;47165;42.664;23.368;2023-12-22T05:22:10;93336.84;;;4.93;64.22
61292;BME280;47165;42.664;23.368;2023-12-22T05:24:37;93334.16;;;4.94;64.91
61292;BME280;47165;42.664;23.368;2023-12-22T05:27:03;93337.28;;;4.99;64.73
61292;BME280;47165;42.664;23.368;2023-12-22T05:29:29;93346.72;;;5.00;64.53
61292;BME280;47165;42.664;23.368;2023-12-22T05:31:55;93349.09;;;5.03;64.21
61292;BME280;47165;42.664;23.368;2023-12-22T05:34:20;93331.75;;;4.91;64.53
61292;BME280;47165;42.664;23.368;2023-12-22T05:36:46;93349.47;;;4.97;64.49
61292;BME280;47165;42.664;23.368;2023-12-22T05:39:11;93362.22;;;5.00;64.75
61292;BME280;47165;42.664;23.368;2023-12-22T05:41:37;93339.84;;;5.14;64.25
61292;BME280;47165;42.664;23.368;2023-12-22T05:44:04;93344.91;;;5.15;64.16
61292;BME280;47165;42.664;23.368;2023-12-22T05:46:30;93354.97;;;5.20;63.75
61292;BME280;47165;42.664;23.368;2023-12-22T05:48:55;93347.22;;;5.20;63.84
61292;BME280;47165;42.664;23.368;2023-12-22T05:51:25;93344.91;;;5.15;64.63
61292;BME280;47165;42.664;23.368;2023-12-22T05:53:51;93343.06;;;5.17;64.67
61292;BME280;47165;42.664;23.368;2023-12-22T05:56:22;93343.88;;;5.18;65.14
61292;BME280;47165;42.664;23.368;2023-12-22T05:58:48;93344.19;;;5.13;65.02
61292;BME280;47165;42.664;23.368;2023-12-22T06:01:16;93335.69;;;5.11;64.98
61292;BME280;47165;42.664;23.368;2023-12-22T06:03:46;93334.47;;;5.17;64.76
61292;BME280;47165;42.664;23.368;2023-12-22T06:06:11;93345.84;;;5.14;64.77
61292;BME280;47165;42.664;23.368;2023-12-22T06:08:37;93332.63;;;5.19;64.88
61292;BME280;47165;42.664;23.368;2023-12-22T06:11:04;93348.16;;;5.19;64.96
61292;BME280;47165;42.664;23.368;2023-12-22T06:13:30;93351.88;;;5.15;65.28
61292;BME280;47165;42.664;23.368;2023-12-22T06:15:56;93343.97;;;5.16;65.17
61292;BME280;47165;42.664;23.368;2023-12-22T06:18:21;93347.41;;;5.17;65.33
61292;BME280;47165;42.664;23.368;2023-12-22T06:20:46;93352.69;;;5.15;65.33
61292;BME280;47165;42.664;23.368;2023-12-22T06:23:12;93337.06;;;5.17;65.32
61292;BME280;47165;42.664;23.368;2023-12-22T06:25:37;93351.66;;;5.18;65.33
61292;BME280;47165;42.664;23.368;2023-12-22T06:28:03;93346.81;;;5.26;65.20
61292;BME280;47165;42.664;23.368;2023-12-22T06:30:28;93354.59;;;5.26;65.22
61292;BME280;47165;42.664;23.368;2023-12-22T06:32:55;93358.22;;;5.23;65.54
61292;BME280;47165;42.664;23.368;2023-12-22T06:35:20;93362.19;;;5.29;65.07
61292;BME280;47165;42.664;23.368;2023-12-22T06:37:49;93362.06;;;5.31;65.25
61292;BME280;47165;42.664;23.368;2023-12-22T06:40:15;93361.50;;;5.40;64.87
61292;BME280;47165;42.664;23.368;2023-12-22T06:42:40;93362.97;;;5.44;64.67
61292;BME280;47165;42.664;23.368;2023-12-22T06:45:06;93374.88;;;5.47;65.29
61292;BME280;47165;42.664;23.368;2023-12-22T06:47:32;93364.38;;;5.35;65.79
61292;BME280;47165;42.664;23.368;2023-12-22T06:49:57;93353.91;;;5.37;65.36
61292;BME280;47165;42.664;23.368;2023-12-22T06:52:23;93351.97;;;5.40;65.49
61292;BME280;47165;42.664;23.368;2023-12-22T06:54:48;93361.50;;;5.40;65.46
61292;BME280;47165;42.664;23.368;2023-12-22T06:57:14;93365.47;;;5.46;65.57
61292;BME280;47165;42.664;23.368;2023-12-22T06:59:39;93358.22;;;5.51;65.35
61292;BME280;47165;42.664;23.368;2023-12-22T07:02:05;93375.94;;;5.57;65.16
61292;BME280;47165;42.664;23.368;2023-12-22T07:05:02;93368.59;;;5.63;64.87
61292;BME280;47165;42.664;23.368;2023-12-22T07:07:30;93358.56;;;5.59;65.06
61292;BME280;47165;42.664;23.368;2023-12-22T07:09:55;93357.09;;;5.55;65.40
61292;BME280;47165;42.664;23.368;2023-12-22T07:12:20;93374.41;;;5.67;65.52
61292;BME280;47165;42.664;23.368;2023-12-22T07:14:46;93371.09;;;5.65;65.65
61292;BME280;47165;42.664;23.368;2023-12-22T07:17:11;93372.06;;;5.64;65.93
61292;BME280;47165;42.664;23.368;2023-12-22T07:19:37;93368.00;;;5.60;66.17
61292;BME280;47165;42.664;23.368;2023-12-22T07:22:02;93374.81;;;5.61;66.28
61292;BME280;47165;42.664;23.368;2023-12-22T07:24:29;93384.06;;;5.65;66.58
61292;BME280;47165;42.664;23.368;2023-12-22T07:26:55;93381.28;;;5.68;66.88
61292;BME280;47165;42.664;23.368;2023-12-22T07:29:20;93376.91;;;5.69;67.26
61292;BME280;47165;42.664;23.368;2023-12-22T07:31:46;93377.84;;;5.68;67.66
61292;BME280;47165;42.664;23.368;2023-12-22T07:34:11;93387.28;;;5.69;68.04
61292;BME280;47165;42.664;23.368;2023-12-22T07:36:37;93383.88;;;5.68;68.10
61292;BME280;47165;42.664;23.368;2023-12-22T07:39:03;93377.44;;;5.74;67.53
61292;BME280;47165;42.664;23.368;2023-12-22T07:41:28;93379.03;;;5.76;67.12
61292;BME280;47165;42.664;23.368;2023-12-22T07:43:53;93390.22;;;5.77;67.75
61292;BME280;47165;42.664;23.368;2023-12-22T07:46:20;93395.91;;;5.82;67.75
61292;BME280;47165;42.664;23.368;2023-12-22T07:48:47;93389.16;;;5.79;68.21
61292;BME280;47165;42.664;23.368;2023-12-22T07:51:12;93401.94;;;5.82;68.36
61292;BME280;47165;42.664;23.368;2023-12-22T07:53:38;93398.22;;;5.87;68.12
61292;BME280;47165;42.664;23.368;2023-12-22T07:56:04;93409.31;;;5.89;68.29
61292;BME280;47165;42.664;23.368;2023-12-22T07:58:31;93404.75;;;5.92;68.21
61292;BME280;47165;42.664;23.368;2023-12-22T08:00:58;93410.97;;;5.90;68.24
61292;BME280;47165;42.664;23.368;2023-12-22T08:03:24;93422.78;;;5.94;68.08
61292;BME280;47165;42.664;23.368;2023-12-22T08:05:49;93415.78;;;5.96;68.10
61292;BME280;47165;42.664;23.368;2023-12-22T08:08:15;93425.97;;;5.99;68.21
61292;BME280;47165;42.664;23.368;2023-12-22T08:10:41;93421.28;;;6.04;68.24
61292;BME280;47165;42.664;23.368;2023-12-22T08:13:06;93428.88;;;6.07;68.38
61292;BME280;47165;42.664;23.368;2023-12-22T08:15:32;93436.53;;;6.09;68.46
61292;BME280;47165;42.664;23.368;2023-12-22T08:17:57;93428.47;;;6.13;68.45
61292;BME280;47165;42.664;23.368;2023-12-22T08:20:23;93443.09;;;6.14;68.57
61292;BME280;47165;42.664;23.368;2023-12-22T08:22:49;93435.66;;;6.22;68.65
61292;BME280;47165;42.664;23.368;2023-12-22T08:25:15;93435.72;;;6.21;69.08
61292;BME280;47165;42.664;23.368;2023-12-22T08:27:41;93439.75;;;6.12;69.18
61292;BME280;47165;42.664;23.368;2023-12-22T08:30:10;93433.44;;;6.16;69.23
61292;BME280;47165;42.664;23.368;2023-12-22T08:32:36;93443.03;;;6.29;68.85
61292;BME280;47165;42.664;23.368;2023-12-22T08:35:02;93446.56;;;6.28;68.50
61292;BME280;47165;42.664;23.368;2023-12-22T08:37:29;93443.84;;;6.29;68.49
61292;BME280;47165;42.664;23.368;2023-12-22T08:39:54;93447.06;;;6.33;68.50
61292;BME280;47165;42.664;23.368;2023-12-22T08:42:20;93444.81;;;6.41;67.97
61292;BME280;47165;42.664;23.368;2023-12-22T08:44:47;93443.44;;;6.35;68.30
61292;BME280;47165;42.664;23.368;2023-12-22T08:47:13;93439.19;;;6.34;68.74
61292;BME280;47165;42.664;23.368;2023-12-22T08:49:38;93435.56;;;6.37;68.92
61292;BME280;47165;42.664;23.368;2023-12-22T08:52:04;93442.22;;;6.41;68.62
61292;BME280;47165;42.664;23.368;2023-12-22T08:54:30;93442.75;;;6.46;68.53
61292;BME280;47165;42.664;23.368;2023-12-22T08:56:56;93444.72;;;6.42;68.88
61292;BME280;47165;42.664;23.368;2023-12-22T08:59:21;93442.22;;;6.41;68.98
61292;BME280;47165;42.664;23.368;2023-12-22T09:01:47;93442.63;;;6.48;69.32
61292;BME280;47165;42.664;23.368;2023-12-22T09:04:12;93446.59;;;6.53;69.72
61292;BME280;47165;42.664;23.368;2023-12-22T09:06:38;93443.25;;;6.51;70.36
61292;BME280;47165;42.664;23.368;2023-12-22T09:09:04;93449.81;;;6.57;69.86
61292;BME280;47165;42.664;23.368;2023-12-22T09:11:29;93456.97;;;6.53;70.49
61292;BME280;47165;42.664;23.368;2023-12-22T09:13:55;93465.28;;;6.58;70.08
61292;BME280;47165;42.664;23.368;2023-12-22T09:16:21;93465.59;;;6.67;69.84
61292;BME280;47165;42.664;23.368;2023-12-22T09:18:47;93464.75;;;6.66;70.19
61292;BME280;47165;42.664;23.368;2023-12-22T09:21:12;93475.66;;;6.71;70.08
61292;BME280;47165;42.664;23.368;2023-12-22T09:23:38;93481.16;;;6.67;69.54
61292;BME280;47165;42.664;23.368;2023-12-22T09:26:04;93476.88;;;6.65;69.42
61292;BME280;47165;42.664;23.368;2023-12-22T09:28:30;93469.66;;;6.71;69.51
61292;BME280;47165;42.664;23.368;2023-12-22T09:30:55;93471.19;;;6.73;69.36
61292;BME280;47165;42.664;23.368;2023-12-22T09:33:21;93471.84;;;6.77;69.38
61292;BME280;47165;42.664;23.368;2023-12-22T09:35:48;93467.88;;;6.84;69.48
61292;BME280;47165;42.664;23.368;2023-12-22T09:38:13;93456.78;;;6.82;69.21
61292;BME280;47165;42.664;23.368;2023-12-22T09:40:39;93459.28;;;6.83;69.20
61292;BME280;47165;42.664;23.368;2023-12-22T09:43:06;93455.53;;;6.75;69.61
61292;BME280;47165;42.664;23.368;2023-12-22T09:45:36;93446.31;;;6.83;69.38
61292;BME280;47165;42.664;23.368;2023-12-22T09:48:05;93448.69;;;6.87;69.24
61292;BME280;47165;42.664;23.368;2023-12-22T09:50:31;93441.22;;;6.95;68.76
61292;BME280;47165;42.664;23.368;2023-12-22T09:52:56;93449.41;;;6.89;69.58
61292;BME280;47165;42.664;23.368;2023-12-22T09:55:22;93445.47;;;6.96;69.65
61292;BME280;47165;42.664;23.368;2023-12-22T09:57:49;93442.66;;;6.99;69.79
61292;BME280;47165;42.664;23.368;2023-12-22T10:00:15;93440.19;;;6.97;70.48
61292;BME280;47165;42.664;23.368;2023-12-22T10:02:43;93427.22;;;6.97;70.78
61292;BME280;47165;42.664;23.368;2023-12-22T10:05:11;93427.63;;;7.04;71.02
61292;BME280;47165;42.664;23.368;2023-12-22T10:07:38;93422.09;;;7.09;71.06
61292;BME280;47165;42.664;23.368;2023-12-22T10:10:05;93409.94;;;7.09;71.05
61292;BME280;47165;42.664;23.368;2023-12-22T10:12:33;93427.69;;;7.15;70.83
61292;BME280;47165;42.664;23.368;2023-12-22T10:15:00;93426.44;;;7.21;70.60
61292;BME280;47165;42.664;23.368;2023-12-22T10:17:26;93427.47;;;7.31;70.39
61292;BME280;47165;42.664;23.368;2023-12-22T10:19:51;93412.13;;;7.28;70.33
61292;BME280;47165;42.664;23.368;2023-12-22T10:22:17;93392.81;;;7.32;70.47
61292;BME280;47165;42.664;23.368;2023-12-22T10:24:44;93397.75;;;7.35;70.59
61292;BME280;47165;42.664;23.368;2023-12-22T10:27:14;93399.09;;;7.41;70.87
61292;BME280;47165;42.664;23.368;2023-12-22T10:29:51;93403.03;;;7.47;70.95
61292;BME280;47165;42.664;23.368;2023-12-22T10:32:19;93389.09;;;7.48;71.21
61292;BME280;47165;42.664;23.368;2023-12-22T10:34:45;93387.13;;;7.51;71.32
61292;BME280;47165;42.664;23.368;2023-12-22T10:37:11;93376.91;;;7.61;71.41
61292;BME280;47165;42.664;23.368;2023-12-22T10:39:39;93386.03;;;7.66;71.29
61292;BME280;47165;42.664;23.368;2023-12-22T10:42:05;93377.69;;;7.74;71.00
61292;BME280;47165;42.664;23.368;2023-12-22T10:44:31;93372.28;;;7.77;71.35
61292;BME280;47165;42.664;23.368;2023-12-22T10:46:57;93363.59;;;7.90;71.15
61292;BME280;47165;42.664;23.368;2023-12-22T10:49:24;93361.25;;;7.98;71.44
61292;BME280;47165;42.664;23.368;2023-12-22T10:51:50;93346.31;;;8.13;71.06
61292;BME280;47165;42.664;23.368;2023-12-22T10:54:16;93336.78;;;8.24;70.75
61292;BME280;47165;42.664;23.368;2023-12-22T10:56:42;93336.34;;;8.42;70.31
61292;BME280;47165;42.664;23.368;2023-12-22T10:59:10;93339.81;;;8.65;70.26
61292;BME280;47165;42.664;23.368;2023-12-22T11:01:37;93341.25;;;8.80;70.28
61292;BME280;47165;42.664;23.368;2023-12-22T11:04:07;93343.47;;;9.07;69.34
61292;BME280;47165;42.664;23.368;2023-12-22T11:06:35;93339.09;;;9.19;68.40
61292;BME280;47165;42.664;23.368;2023-12-22T11:09:06;93339.56;;;9.36;68.11
61292;BME280;47165;42.664;23.368;2023-12-22T11:11:37;93321.28;;;9.47;67.77
61292;BME280;47165;42.664;23.368;2023-12-22T11:14:03;93317.91;;;9.67;67.16
61292;BME280;47165;42.664;23.368;2023-12-22T11:16:30;93291.34;;;9.74;66.25
61292;BME280;47165;42.664;23.368;2023-12-22T11:18:56;93287.31;;;10.02;66.29
61292;BME280;47165;42.664;23.368;2023-12-22T11:21:23;93286.09;;;10.27;65.58
61292;BME280;47165;42.664;23.368;2023-12-22T11:23:50;93289.16;;;10.53;65.63
61292;BME280;47165;42.664;23.368;2023-12-22T11:26:21;93284.94;;;10.83;65.07
61292;BME280;47165;42.664;23.368;2023-12-22T11:28:48;93280.50;;;11.14;64.68
61292;BME280;47165;42.664;23.368;2023-12-22T11:31:15;93287.00;;;11.39;62.73
61292;BME280;47165;42.664;23.368;2023-12-22T11:33:45;93298.44;;;11.58;61.46
61292;BME280;47165;42.664;23.368;2023-12-22T11:36:12;93307.56;;;11.73;60.82
61292;BME280;47165;42.664;23.368;2023-12-22T11:38:40;93310.31;;;11.81;60.09
61292;BME280;47165;42.664;23.368;2023-12-22T11:41:08;93311.19;;;11.92;59.19
61292;BME280;47165;42.664;23.368;2023-12-22T11:43:37;93316.69;;;11.98;58.62
61292;BME280;47165;42.664;23.368;2023-12-22T11:46:04;93323.97;;;11.95;56.76
61292;BME280;47165;42.664;23.368;2023-12-22T11:48:30;93332.94;;;12.02;56.66
61292;BME280;47165;42.664;23.368;2023-12-22T11:50:56;93333.34;;;12.07;55.87
61292;BME280;47165;42.664;23.368;2023-12-22T11:53:29;93336.09;;;12.15;55.64
61292;BME280;47165;42.664;23.368;2023-12-22T11:56:05;93332.91;;;12.12;54.73
61292;BME280;47165;42.664;23.368;2023-12-22T11:58:47;93324.13;;;12.13;53.65
61292;BME280;47165;42.664;23.368;2023-12-22T12:01:25;93306.78;;;12.02;53.01
61292;BME280;47165;42.664;23.368;2023-12-22T12:03:55;93316.69;;;11.88;53.10
61292;BME280;47165;42.664;23.368;2023-12-22T12:06:22;93319.94;;;11.81;52.26
61292;BME280;47165;42.664;23.368;2023-12-22T12:08:56;93313.59;;;11.64;51.89
61292;BME280;47165;42.664;23.368;2023-12-22T12:11:23;93324.72;;;11.46;51.52
61292;BME280;47165;42.664;23.368;2023-12-22T12:13:50;93324.50;;;11.19;51.79
61292;BME280;47165;42.664;23.368;2023-12-22T12:16:22;93349.22;;;11.15;52.00
61292;BME280;47165;42.664;23.368;2023-12-22T12:18:47;93322.94;;;10.76;51.71
61292;BME280;47165;42.664;23.368;2023-12-22T12:21:13;93335.38;;;10.62;51.71
61292;BME280;47165;42.664;23.368;2023-12-22T12:23:41;93323.38;;;10.50;51.99
61292;BME280;47165;42.664;23.368;2023-12-22T12:26:07;93320.53;;;10.63;52.49
61292;BME280;47165;42.664;23.368;2023-12-22T12:28:35;93303.66;;;10.25;51.63
61292;BME280;47165;42.664;23.368;2023-12-22T12:31:08;93303.22;;;10.20;51.94
61292;BME280;47165;42.664;23.368;2023-12-22T12:33:35;93296.22;;;10.20;52.24
61292;BME280;47165;42.664;23.368;2023-12-22T12:36:01;93298.41;;;10.15;52.44
61292;BME280;47165;42.664;23.368;2023-12-22T12:41:16;93279.88;;;9.97;51.85
61292;BME280;47165;42.664;23.368;2023-12-22T12:43:42;93291.13;;;9.98;51.76
61292;BME280;47165;42.664;23.368;2023-12-22T12:46:08;93277.88;;;9.90;51.85
61292;BME280;47165;42.664;23.368;2023-12-22T12:48:34;93267.66;;;9.77;52.06
61292;BME280;47165;42.664;23.368;2023-12-22T12:51:04;93272.03;;;9.76;51.84
61292;BME280;47165;42.664;23.368;2023-12-22T12:53:31;93280.88;;;9.85;51.58
61292;BME280;47165;42.664;23.368;2023-12-22T12:55:58;93281.78;;;9.95;51.36
61292;BME280;47165;42.664;23.368;2023-12-22T12:58:33;93299.25;;;10.04;51.27
61292;BME280;47165;42.664;23.368;2023-12-22T13:01:09;93304.63;;;10.03;51.51
61292;BME280;47165;42.664;23.368;2023-12-22T13:03:54;93309.38;;;9.98;51.64